地図

経路データ

SID SEASON NUMBER BASIN SUBBASIN NAME ISO_TIME NATURE LAT LON WMO_WIND WMO_PRES WMO_AGENCY TRACK_TYPE DIST2LAND LANDFALL IFLAG USA_AGENCY USA_ATCF_ID USA_LAT USA_LON USA_RECORD USA_STATUS USA_WIND USA_PRES USA_SSHS USA_R34_NE USA_R34_SE USA_R34_SW USA_R34_NW USA_R50_NE USA_R50_SE USA_R50_SW USA_R50_NW USA_R64_NE USA_R64_SE USA_R64_SW USA_R64_NW USA_POCI USA_ROCI USA_RMW USA_EYE TOKYO_LAT TOKYO_LON TOKYO_GRADE TOKYO_WIND TOKYO_PRES TOKYO_R50_DIR TOKYO_R50_LONG TOKYO_R50_SHORT TOKYO_R30_DIR TOKYO_R30_LONG TOKYO_R30_SHORT TOKYO_LAND CMA_LAT CMA_LON CMA_CAT CMA_WIND CMA_PRES HKO_LAT HKO_LON HKO_CAT HKO_WIND HKO_PRES NEWDELHI_LAT NEWDELHI_LON NEWDELHI_GRADE NEWDELHI_WIND NEWDELHI_PRES NEWDELHI_CI NEWDELHI_DP NEWDELHI_POCI REUNION_LAT REUNION_LON REUNION_TYPE REUNION_WIND REUNION_PRES REUNION_TNUM REUNION_CI REUNION_RMW REUNION_R34_NE REUNION_R34_SE REUNION_R34_SW REUNION_R34_NW REUNION_R50_NE REUNION_R50_SE REUNION_R50_SW REUNION_R50_NW REUNION_R64_NE REUNION_R64_SE REUNION_R64_SW REUNION_R64_NW BOM_LAT BOM_LON BOM_TYPE BOM_WIND BOM_PRES BOM_TNUM BOM_CI BOM_RMW BOM_R34_NE BOM_R34_SE BOM_R34_SW BOM_R34_NW BOM_R50_NE BOM_R50_SE BOM_R50_SW BOM_R50_NW BOM_R64_NE BOM_R64_SE BOM_R64_SW BOM_R64_NW BOM_ROCI BOM_POCI BOM_EYE BOM_POS_METHOD BOM_PRES_METHOD NADI_LAT NADI_LON NADI_CAT NADI_WIND NADI_PRES WELLINGTON_LAT WELLINGTON_LON WELLINGTON_WIND WELLINGTON_PRES DS824_LAT DS824_LON DS824_STAGE DS824_WIND DS824_PRES TD9636_LAT TD9636_LON TD9636_STAGE TD9636_WIND TD9636_PRES TD9635_LAT TD9635_LON TD9635_WIND TD9635_PRES TD9635_ROCI NEUMANN_LAT NEUMANN_LON NEUMANN_CLASS NEUMANN_WIND NEUMANN_PRES MLC_LAT MLC_LON MLC_CLASS MLC_WIND MLC_PRES USA_GUST BOM_GUST BOM_GUST_PER REUNION_GUST REUNION_GUST_PER USA_SEAHGT USA_SEARAD_NE USA_SEARAD_SE USA_SEARAD_SW USA_SEARAD_NW STORM_SPEED STORM_DIR
1922269N10129 1922 55 WP MM NOT_NAMED 1922-09-26 09:00:00 NR 10.4000 129.200 main 355 270 __________O___ -1 10.4000 129.200 4 41 324
1922269N10129 1922 55 WP MM NOT_NAMED 1922-09-26 12:00:00 NR 12.0302 127.990 main 264 204 __________P___ -1 12.0302 127.990 4 39 324
1922269N10129 1922 55 WP MM NOT_NAMED 1922-09-26 15:00:00 NR 13.5676 126.826 main 210 184 __________P___ -1 13.5676 126.826 4 36 323
1922269N10129 1922 55 WP MM NOT_NAMED 1922-09-26 18:00:00 NR 14.9204 125.774 main 187 186 __________P___ -1 14.9204 125.774 4 31 323
1922269N10129 1922 55 WP MM NOT_NAMED 1922-09-26 21:00:00 NR 16.0000 124.900 main 232 192 __________O___ -1 16.0000 124.900 4 24 321
1922269N10129 1922 55 WP MM NOT_NAMED 1922-09-27 00:00:00 NR 16.7561 124.251 main 191 139 __________P___ -1 16.7561 124.251 4 17 320
1922269N10129 1922 55 WP MM NOT_NAMED 1922-09-27 03:00:00 NR 17.2773 123.781 main 142 115 __________P___ -1 17.2773 123.781 4 12 320
1922269N10129 1922 55 WP MM NOT_NAMED 1922-09-27 06:00:00 NR 17.6853 123.421 main 115 87 __________P___ -1 17.6853 123.421 4 11 322
1922269N10129 1922 55 WP MM NOT_NAMED 1922-09-27 09:00:00 NR 18.1000 123.100 main 87 47 __________O___ -1 18.1000 123.100 4 12 326
1922269N10129 1922 55 WP MM NOT_NAMED 1922-09-27 12:00:00 NR 18.7040 122.699 main 53 53 __________P___ -1 18.7040 122.699 4 14 329
1922269N10129 1922 55 WP MM NOT_NAMED 1922-09-27 15:00:00 NR 19.3345 122.319 main 100 100 __________P___ -1 19.3345 122.319 4 15 331
1922269N10129 1922 55 WP MM NOT_NAMED 1922-09-27 18:00:00 NR 19.9728 121.955 main 179 162 __________P___ -1 19.9728 121.955 4 14 332
1922269N10129 1922 55 WP MM NOT_NAMED 1922-09-27 21:00:00 NR 20.6000 121.600 main 162 84 __________O___ -1 20.6000 121.600 4 14 330
1922269N10129 1922 55 WP MM NOT_NAMED 1922-09-28 00:00:00 NR 21.2139 121.195 main 84 11 __________P___ -1 21.2139 121.195 4 14 328
1922269N10129 1922 55 WP MM NOT_NAMED 1922-09-28 03:00:00 NR 21.8103 120.804 main 11 0 __________P___ -1 21.8103 120.804 4 14 330
1922269N10129 1922 55 WP MM NOT_NAMED 1922-09-28 06:00:00 NR 22.3765 120.461 main 0 0 __________P___ -1 22.3765 120.461 4 12 333
1922269N10129 1922 55 WP MM NOT_NAMED 1922-09-28 09:00:00 NR 22.9000 120.200 main 0 0 __________O___ -1 22.9000 120.200 4 11 339
1922269N10129 1922 55 WP MM NOT_NAMED 1922-09-28 12:00:00 NR 23.3797 120.054 main 10 10 __________P___ -1 23.3797 120.054 4 9 348
1922269N10129 1922 55 WP MM NOT_NAMED 1922-09-28 15:00:00 NR 23.8169 119.993 main 23 23 __________P___ -1 23.8169 119.993 4 8 356
1922269N10129 1922 55 WP MM NOT_NAMED 1922-09-28 18:00:00 NR 24.2206 119.986 main 37 37 __________P___ -1 24.2206 119.986 4 8 1
1922269N10129 1922 55 WP MM NOT_NAMED 1922-09-28 21:00:00 NR 24.6000 120.000 main 64 52 __________O___ -1 24.6000 120.000 4 8 0
1922269N10129 1922 55 WP MM NOT_NAMED 1922-09-29 00:00:00 NR 24.9756 119.969 main 52 32 __________P___ -1 24.9756 119.969 4 7 357
1922269N10129 1922 55 WP MM NOT_NAMED 1922-09-29 03:00:00 NR 25.3299 119.955 main 32 30 __________P___ -1 25.3299 119.955 4 7 0
1922269N10129 1922 55 WP MM NOT_NAMED 1922-09-29 06:00:00 NR 25.6693 119.963 main 37 29 __________P___ -1 25.6693 119.963 4 7 4
1922269N10129 1922 55 WP MM NOT_NAMED 1922-09-29 09:00:00 NR 26.0000 120.000 main 29 19 __________O___ -1 26.0000 120.000 4 6 4
1922269N10129 1922 55 WP MM NOT_NAMED 1922-09-29 12:00:00 NR 26.2665 120.001 main 19 11 __________P___ -1 26.2665 120.001 4 5 5
1922269N10129 1922 55 WP MM NOT_NAMED 1922-09-29 15:00:00 NR 26.5362 120.040 main 11 0 __________P___ -1 26.5362 120.040 4 6 13
1922269N10129 1922 55 WP MM NOT_NAMED 1922-09-29 18:00:00 NR 26.8629 120.159 main 0 0 __________P___ -1 26.8629 120.159 4 8 23
1922269N10129 1922 55 WP MM NOT_NAMED 1922-09-29 21:00:00 NR 27.3000 120.400 main 0 0 __________O___ -1 27.3000 120.400 4 12 29
1922269N10129 1922 55 WP MM NOT_NAMED 1922-09-30 00:00:00 NR 27.9233 120.817 main 0 0 __________P___ -1 27.9233 120.817 4 16 32
1922269N10129 1922 55 WP MM NOT_NAMED 1922-09-30 03:00:00 NR 28.6542 121.361 main 0 0 __________P___ -1 28.6542 121.361 4 18 34
1922269N10129 1922 55 WP MM NOT_NAMED 1922-09-30 06:00:00 NR 29.4328 121.974 main 9 9 __________P___ -1 29.4328 121.974 4 19 35
1922269N10129 1922 55 WP MM NOT_NAMED 1922-09-30 09:00:00 NR 30.2000 122.600 main 80 80 __________O___ -1 30.2000 122.600 4 17 34
1922269N10129 1922 55 WP MM NOT_NAMED 1922-09-30 12:00:00 NR 30.8276 123.082 main 114 114 __________P___ -1 30.8276 123.082 4 15 34
1922269N10129 1922 55 WP MM NOT_NAMED 1922-09-30 15:00:00 NR 31.4422 123.573 main 164 162 __________P___ -1 31.4422 123.573 4 15 35
1922269N10129 1922 55 WP MM NOT_NAMED 1922-09-30 18:00:00 NR 32.0859 124.126 main 212 141 __________P___ -1 32.0859 124.126 4 17 37
1922269N10129 1922 55 WP MM NOT_NAMED 1922-09-30 21:00:00 NR 32.8000 124.800 main 141 59 __________O___ -1 32.8000 124.800 4 20 40
1922269N10129 1922 55 WP MM NOT_NAMED 1922-10-01 00:00:00 NR 33.6386 125.685 main 56 0 __________P___ -1 33.6386 125.685 4 24 42
1922269N10129 1922 55 WP MM NOT_NAMED 1922-10-01 03:00:00 NR 34.5432 126.704 main 0 0 __________P___ -1 34.5432 126.704 4 25 43
1922269N10129 1922 55 WP MM NOT_NAMED 1922-10-01 06:00:00 NR 35.4757 127.796 main 0 0 __________P___ -1 35.4757 127.796 4 26 44
1922269N10129 1922 55 WP MM NOT_NAMED 1922-10-01 09:00:00 NR 36.4000 128.900 main 0 0 __________O___ -1 36.4000 128.900 4 23 42
1922269N10129 1922 55 WP MM NOT_NAMED 1922-10-01 12:00:00 NR 37.2253 129.742 main 28 28 __________P___ -1 37.2253 129.742 4 21 39
1922269N10129 1922 55 WP MM NOT_NAMED 1922-10-01 15:00:00 NR 38.0466 130.604 main 134 134 __________P___ -1 38.0466 130.604 4 22 42
1922269N10129 1922 55 WP MM NOT_NAMED 1922-10-01 18:00:00 NR 38.8959 131.636 main 255 255 __________P___ -1 38.8959 131.636 4 26 47
1922269N10129 1922 55 WP MM NOT_NAMED 1922-10-01 21:00:00 NR 39.8000 133.000 main 300 240 __________O___ -1 39.8000 133.000 4 32 53
1922269N10129 1922 55 WP MM NOT_NAMED 1922-10-02 00:00:00 NR 40.8341 134.929 main 243 229 __________P___ -1 40.8341 134.929 4 38 57
1922269N10129 1922 55 WP MM NOT_NAMED 1922-10-02 03:00:00 NR 41.8814 137.242 main 218 27 __________P___ -1 41.8814 137.242 4 41 61
1922269N10129 1922 55 WP MM NOT_NAMED 1922-10-02 06:00:00 NR 42.8597 139.789 main 27 0 __________P___ -1 42.8597 139.789 4 42 64
1922269N10129 1922 55 WP MM NOT_NAMED 1922-10-02 09:00:00 NR 43.7000 142.400 main 0 0 __________O___ -1 43.7000 142.400 4 40 68
1922269N10129 1922 55 WP MM NOT_NAMED 1922-10-02 12:00:00 NR 44.3634 144.926 main 32 7 __________P___ -1 44.3634 144.926 4 37 72
1922269N10129 1922 55 WP MM NOT_NAMED 1922-10-02 15:00:00 NR 44.8766 147.361 main 0 0 __________P___ -1 44.8766 147.361 4 35 75
1922269N10129 1922 55 WP MM NOT_NAMED 1922-10-02 18:00:00 NR 45.2777 149.740 main 33 33 __________P___ -1 45.2777 149.740 4 34 78
1922269N10129 1922 55 WP MM NOT_NAMED 1922-10-02 21:00:00 NR 45.6000 152.100 main 142 __________O___ -1 45.6000 152.100 4 34 79

デジタル台風データ・検索

IBTrACS Databaseについて

本データベースは、米国NOAAが公開する1842年以降の世界の熱帯低気圧のベストトラックデータアーカイブInternational Best Track Archive for Climate Stewardship (IBTrACS)を、ウェブで閲覧しやすい形式に変換したものです。

最終更新日:2021-10-08